createdAt,value
2023-02-23T17:27:12.047Z,36.30
2023-02-23T17:29:38.842Z,37.90
2023-02-23T17:32:06.082Z,42.45
2023-02-23T17:34:33.099Z,41.97
2023-02-23T17:36:59.834Z,40.65
2023-02-23T17:39:28.234Z,40.85
2023-02-23T17:41:55.754Z,41.65
2023-02-23T17:44:22.945Z,42.80
2023-02-23T17:46:49.912Z,43.63
2023-02-23T17:49:16.903Z,45.35
2023-02-23T17:51:43.692Z,43.65
2023-02-23T17:54:10.528Z,45.40
2023-02-23T17:56:37.584Z,33.88
2023-02-23T17:59:04.608Z,48.10
2023-02-23T18:01:31.545Z,44.85
2023-02-23T18:03:59.356Z,47.50
2023-02-23T18:06:26.400Z,52.38
2023-02-23T18:08:53.172Z,61.78
2023-02-23T18:11:20.331Z,56.17
2023-02-23T18:13:48.281Z,51.08
2023-02-23T18:16:16.133Z,47.08
2023-02-23T18:18:46.116Z,49.75
2023-02-23T18:21:16.900Z,58.33
2023-02-23T18:23:43.901Z,52.92
2023-02-23T18:26:14.202Z,55.35
2023-02-23T18:28:44.381Z,54.00
2023-02-23T18:31:17.963Z,56.25
2023-02-23T18:33:45.080Z,54.78
2023-02-23T18:36:22.966Z,54.38
2023-02-23T18:41:35.995Z,54.60
2023-02-23T18:44:05.424Z,48.38
2023-02-23T18:46:32.905Z,54.00
2023-02-23T18:49:01.205Z,51.33
2023-02-23T18:51:28.052Z,54.03
2023-02-23T18:53:55.236Z,51.10
2023-02-23T18:56:25.204Z,52.88
2023-02-23T18:58:58.097Z,51.67
2023-02-23T19:01:30.807Z,60.28
2023-02-23T19:04:00.040Z,55.85
2023-02-23T19:06:27.777Z,57.97
2023-02-23T19:08:57.381Z,54.30
2023-02-23T19:11:29.691Z,54.80
2023-02-23T19:14:02.073Z,54.90
2023-02-23T19:16:32.528Z,51.40
2023-02-23T19:19:00.355Z,55.80
2023-02-23T19:21:27.779Z,54.30
2023-02-23T19:23:57.708Z,51.03
2023-02-23T19:26:26.034Z,50.20
2023-02-23T19:28:53.466Z,55.35
2023-02-23T19:31:22.569Z,54.67
2023-02-23T19:33:50.537Z,54.95
2023-02-23T19:36:20.267Z,53.20
2023-02-23T19:38:47.375Z,48.00
2023-02-23T19:41:17.301Z,56.90
2023-02-23T19:43:44.057Z,54.17
2023-02-23T19:46:13.900Z,52.20
2023-02-23T19:48:40.905Z,57.13
2023-02-23T19:51:11.910Z,57.35
2023-02-23T19:53:39.289Z,51.92
2023-02-23T19:56:10.145Z,53.28
2023-02-23T19:58:37.169Z,48.97
2023-02-23T20:01:08.721Z,55.70
2023-02-23T20:03:39.504Z,55.60
2023-02-23T20:06:07.471Z,51.47
2023-02-23T20:08:34.626Z,57.13
2023-02-23T20:11:05.557Z,59.40
2023-02-23T20:13:32.520Z,52.92
2023-02-23T20:16:06.331Z,58.22
2023-02-23T20:18:35.747Z,56.90
2023-02-23T20:21:21.512Z,55.88
2023-02-23T20:23:48.586Z,56.20
2023-02-23T20:26:20.952Z,54.92
2023-02-23T20:28:50.130Z,54.28
2023-02-23T20:31:21.833Z,53.97
2023-02-23T20:33:51.778Z,58.67
2023-02-23T20:36:20.830Z,54.00
2023-02-23T20:38:47.688Z,55.67
2023-02-23T20:41:14.521Z,53.45
2023-02-23T20:43:41.297Z,51.20
2023-02-23T20:46:08.696Z,54.65
2023-02-23T20:48:35.927Z,54.63
2023-02-23T20:51:03.624Z,55.38
2023-02-23T20:53:30.631Z,56.85
2023-02-23T20:55:58.919Z,53.45
2023-02-23T20:58:26.312Z,53.28
2023-02-23T21:00:57.238Z,51.40
2023-02-23T21:03:25.249Z,54.08
2023-02-23T21:05:53.036Z,50.05
2023-02-23T21:08:21.714Z,51.90
2023-02-23T21:10:50.226Z,52.70
2023-02-23T21:13:18.068Z,49.78
2023-02-23T21:15:58.706Z,54.17
2023-02-23T21:18:25.604Z,53.33
2023-02-23T21:20:52.284Z,46.10
2023-02-23T21:23:21.518Z,55.25
2023-02-23T21:25:49.025Z,52.08
2023-02-23T21:28:15.991Z,48.78
2023-02-23T21:30:42.782Z,47.03
2023-02-23T21:33:09.692Z,49.10
2023-02-23T21:35:38.388Z,51.15
2023-02-23T21:38:05.214Z,47.90
2023-02-23T21:40:33.356Z,51.55
2023-02-23T21:43:01.449Z,48.10
2023-02-23T21:45:28.515Z,49.08
2023-02-23T21:47:57.694Z,53.28
2023-02-23T21:50:25.028Z,51.45
2023-02-23T21:52:54.144Z,48.22
2023-02-23T21:55:22.087Z,48.95
2023-02-23T21:57:50.279Z,46.08
2023-02-23T22:00:19.115Z,47.88
2023-02-23T22:02:46.836Z,43.30
2023-02-23T22:05:15.565Z,46.95
2023-02-23T22:07:47.276Z,43.22
2023-02-23T22:10:27.394Z,39.25
2023-02-23T22:12:56.259Z,40.65
2023-02-23T22:15:27.784Z,35.70
2023-02-23T22:17:55.807Z,37.22
2023-02-23T22:20:22.841Z,35.78
2023-02-23T22:22:52.729Z,41.10
2023-02-23T22:25:20.301Z,33.92
2023-02-23T22:27:47.920Z,32.58
2023-02-23T22:30:15.612Z,35.83
2023-02-23T22:32:43.420Z,39.15
2023-02-23T22:35:10.950Z,34.17
2023-02-23T22:37:38.761Z,39.40
2023-02-23T22:40:12.350Z,30.98
2023-02-23T22:42:39.110Z,37.75
2023-02-23T22:45:06.205Z,40.65
2023-02-23T22:47:35.004Z,41.78
2023-02-23T22:50:01.799Z,36.25
2023-02-23T22:52:29.894Z,37.03
2023-02-23T22:54:56.714Z,35.45
2023-02-23T22:57:23.533Z,35.80
2023-02-23T23:00:00.118Z,33.00
2023-02-23T23:02:32.095Z,30.02
2023-02-23T23:04:59.845Z,35.10
2023-02-23T23:07:26.521Z,36.22
2023-02-23T23:09:53.726Z,27.95
2023-02-23T23:12:21.225Z,37.65
2023-02-23T23:14:47.904Z,37.78
2023-02-23T23:17:15.269Z,33.30
2023-02-23T23:19:42.056Z,36.90
2023-02-23T23:22:14.534Z,37.38
2023-02-23T23:24:46.133Z,37.45
2023-02-23T23:27:14.667Z,36.63
2023-02-23T23:29:46.536Z,34.13
2023-02-23T23:32:17.290Z,36.70
2023-02-23T23:34:49.026Z,35.38
2023-02-23T23:37:17.236Z,35.95
2023-02-23T23:39:44.207Z,36.80
2023-02-23T23:42:11.217Z,38.45
2023-02-23T23:44:37.895Z,38.40
2023-02-23T23:47:05.281Z,38.45
2023-02-23T23:49:38.744Z,39.67
2023-02-23T23:52:07.292Z,38.25
2023-02-23T23:54:42.891Z,41.60
2023-02-23T23:57:11.524Z,43.25
2023-02-23T23:59:45.996Z,40.13
